createdAt,value
2023-01-07T00:01:44.836Z,99988.25
2023-01-07T00:04:16.468Z,99991.03
2023-01-07T00:06:46.034Z,99993.81
2023-01-07T00:09:19.665Z,99993.38
2023-01-07T00:11:47.939Z,99995.81
2023-01-07T00:14:16.654Z,99997.03
2023-01-07T00:16:45.117Z,99991.50
2023-01-07T00:19:17.172Z,99993.50
2023-01-07T00:21:45.556Z,99999.50
2023-01-07T00:24:14.079Z,100001.50
2023-01-07T00:26:42.665Z,100006.59
2023-01-07T00:29:11.086Z,100008.59
2023-01-07T00:31:41.930Z,100017.72
2023-01-07T00:34:11.218Z,100020.03
2023-01-07T00:36:45.287Z,100021.59
2023-01-07T00:39:20.414Z,100028.69
2023-01-07T00:42:08.500Z,100028.25
2023-01-07T00:44:38.610Z,100025.81
2023-01-07T00:47:07.383Z,100031.66
2023-01-07T00:49:35.806Z,100029.22
2023-01-07T00:52:04.121Z,100035.84
2023-01-07T00:54:32.517Z,100037.41
2023-01-07T00:57:00.823Z,100039.72
2023-01-07T00:59:29.072Z,100042.81
2023-01-07T01:01:57.485Z,100046.38
2023-01-07T01:04:25.854Z,100050.13
2023-01-07T01:06:54.150Z,100048.44
2023-01-07T01:09:23.298Z,100053.06
2023-01-07T01:11:51.611Z,100054.19
2023-01-07T01:14:20.012Z,100057.16
2023-01-07T01:16:48.313Z,100060.88
2023-01-07T01:19:17.189Z,100058.28
2023-01-07T01:21:45.543Z,100068.47
2023-01-07T01:24:13.870Z,100073.44
2023-01-07T01:26:42.158Z,100068.22
2023-01-07T01:29:10.473Z,100083.53
2023-01-07T01:31:38.911Z,100081.72
2023-01-07T01:34:07.365Z,100095.78
2023-01-07T01:36:35.680Z,100094.75
2023-01-07T01:39:04.216Z,100093.38
2023-01-07T01:41:33.032Z,100102.69
2023-01-07T01:44:01.595Z,100101.59
2023-01-07T01:46:29.849Z,100109.66
2023-01-07T01:49:27.071Z,100108.16
2023-01-07T01:52:01.811Z,100117.00
2023-01-07T01:54:31.094Z,100122.25
2023-01-07T01:57:03.263Z,100112.38
2023-01-07T01:59:35.871Z,100116.13
2023-01-07T02:02:05.239Z,100112.72
2023-01-07T02:04:35.012Z,100117.25
2023-01-07T02:07:17.036Z,100123.72
2023-01-07T02:09:45.870Z,100118.78
2023-01-07T02:12:47.358Z,100118.19
2023-01-07T02:15:30.837Z,100122.69
2023-01-07T02:18:17.670Z,100124.06
2023-01-07T02:21:00.836Z,100116.66
2023-01-07T02:23:37.854Z,100129.97
2023-01-07T02:26:09.139Z,100130.09
2023-01-07T02:29:12.314Z,100127.78
2023-01-07T02:31:43.729Z,100133.50
2023-01-07T02:34:34.559Z,100144.34
2023-01-07T02:37:20.916Z,100136.59
2023-01-07T02:40:15.621Z,100133.97
2023-01-07T02:43:05.108Z,100136.91
2023-01-07T02:45:45.599Z,100130.84
2023-01-07T02:48:16.959Z,100127.44
2023-01-07T02:50:45.304Z,100133.13
2023-01-07T02:53:18.452Z,100128.00
2023-01-07T02:56:25.649Z,100130.78
2023-01-07T02:59:11.902Z,100129.97
2023-01-07T03:02:07.450Z,100130.38
2023-01-07T03:04:57.124Z,100117.94
2023-01-07T03:08:06.449Z,100130.63
2023-01-07T03:11:00.618Z,100123.94
2023-01-07T03:13:59.892Z,100118.00
2023-01-07T03:16:40.788Z,100113.31
2023-01-07T03:19:17.732Z,100108.91
2023-01-07T03:21:49.106Z,100108.72
2023-01-07T03:24:18.470Z,100105.75
2023-01-07T03:26:53.874Z,100100.47
2023-01-07T03:29:23.686Z,100096.28
2023-01-07T03:32:11.439Z,100088.47
2023-01-07T03:34:45.017Z,100082.72
2023-01-07T03:37:21.379Z,100078.47
2023-01-07T03:39:51.994Z,100075.31
2023-01-07T03:42:43.772Z,100087.53
2023-01-07T03:45:16.103Z,100074.94
2023-01-07T03:47:49.250Z,100072.75
2023-01-07T03:50:19.139Z,100061.97
2023-01-07T03:52:49.421Z,100073.53
2023-01-07T03:55:18.367Z,100070.69
2023-01-07T03:57:47.029Z,100061.44
2023-01-07T04:00:16.613Z,100056.97
2023-01-07T04:02:45.094Z,100064.97
2023-01-07T04:05:13.643Z,100050.13
2023-01-07T04:07:42.007Z,100043.38
2023-01-07T04:10:11.030Z,100046.81
2023-01-07T04:12:39.387Z,100045.50
2023-01-07T04:15:08.759Z,100050.06
2023-01-07T04:17:37.102Z,100039.81
2023-01-07T04:20:08.807Z,100032.81
2023-01-07T04:22:37.256Z,100015.09
2023-01-07T04:25:05.931Z,100012.13
2023-01-07T04:27:34.718Z,100003.50
2023-01-07T04:30:03.058Z,100003.06
2023-01-07T04:34:59.283Z,99991.81
2023-01-07T04:37:27.710Z,99987.03
2023-01-07T04:39:56.052Z,99983.31
2023-01-07T04:42:24.393Z,99976.47
2023-01-07T04:44:53.526Z,99967.66
2023-01-07T04:47:21.834Z,99960.06
2023-01-07T04:49:50.180Z,99957.31
2023-01-07T04:52:18.483Z,99953.78
2023-01-07T04:54:46.790Z,99935.19
2023-01-07T04:57:15.217Z,99927.56
2023-01-07T04:59:43.696Z,99925.53
2023-01-07T05:02:12.072Z,99919.66
2023-01-07T05:04:40.513Z,99910.97
2023-01-07T05:07:08.963Z,99909.66
2023-01-07T05:09:37.250Z,99909.38
2023-01-07T05:12:06.045Z,99898.69
2023-01-07T05:14:34.340Z,99896.09
2023-01-07T05:17:02.758Z,99888.44
2023-01-07T05:19:31.151Z,99876.50
2023-01-07T05:22:01.074Z,99873.72
2023-01-07T05:24:29.562Z,99874.78
2023-01-07T05:26:58.007Z,99862.16
2023-01-07T05:29:26.352Z,99864.00
2023-01-07T05:31:54.687Z,99849.78
2023-01-07T05:34:22.977Z,99852.59
2023-01-07T05:36:51.271Z,99831.25
2023-01-07T05:39:19.621Z,99822.84
2023-01-07T05:41:47.912Z,99818.53
2023-01-07T05:44:16.275Z,99813.19
2023-01-07T05:46:45.108Z,99808.84
2023-01-07T05:49:13.532Z,99805.34
2023-01-07T05:51:41.817Z,99795.13
2023-01-07T05:54:10.293Z,99793.88
2023-01-07T05:56:38.617Z,99784.94
2023-01-07T05:59:06.927Z,99771.16
2023-01-07T06:01:35.235Z,99776.78
2023-01-07T06:04:03.703Z,99769.38
2023-01-07T06:06:32.042Z,99761.75
2023-01-07T06:09:00.342Z,99751.56
2023-01-07T06:11:28.686Z,99736.75
2023-01-07T06:13:56.987Z,99738.31
2023-01-07T06:16:25.358Z,99731.91
2023-01-07T06:18:53.812Z,99725.78
2023-01-07T06:21:22.516Z,99719.72
2023-01-07T06:23:50.822Z,99705.94
2023-01-07T06:26:19.275Z,99701.59
2023-01-07T06:28:47.548Z,99702.84
2023-01-07T06:31:15.879Z,99692.91
2023-01-07T06:33:44.186Z,99689.84
2023-01-07T06:36:12.894Z,99686.00
2023-01-07T06:38:42.603Z,99664.03
2023-01-07T06:41:10.888Z,99670.94
2023-01-07T06:43:39.223Z,99669.91
2023-01-07T06:46:07.841Z,99642.84
2023-01-07T06:48:36.218Z,99637.50
2023-01-07T06:51:04.697Z,99633.16
2023-01-07T06:53:33.266Z,99629.31
2023-01-07T06:56:01.579Z,99618.31
2023-01-07T06:58:29.920Z,99614.25
2023-01-07T07:00:58.350Z,99621.63
2023-01-07T07:03:26.711Z,99618.81
2023-01-07T07:05:55.015Z,99616.78
2023-01-07T07:08:23.298Z,99612.16
2023-01-07T07:10:51.655Z,99608.84
2023-01-07T07:13:20.069Z,99609.09
2023-01-07T07:15:48.715Z,99598.63
2023-01-07T07:18:20.777Z,99610.13
2023-01-07T07:20:50.189Z,99609.38
2023-01-07T07:23:19.541Z,99595.09
2023-01-07T07:25:47.840Z,99588.44
2023-01-07T07:28:16.171Z,99576.91
2023-01-07T07:30:47.403Z,99574.09
2023-01-07T07:33:19.920Z,99568.22
2023-01-07T07:35:49.328Z,99566.16
2023-01-07T07:38:19.409Z,99561.31
2023-01-07T07:40:48.881Z,99557.97
2023-01-07T07:43:17.518Z,99550.31
2023-01-07T07:45:45.966Z,99543.94
2023-01-07T07:48:16.178Z,99556.69
2023-01-07T07:50:44.566Z,99548.78
2023-01-07T07:53:13.064Z,99545.97
2023-01-07T07:55:42.384Z,99544.69
2023-01-07T07:58:10.679Z,99555.16
2023-01-07T08:00:39.009Z,99551.31
2023-01-07T08:03:08.007Z,99536.75
2023-01-07T08:05:36.424Z,99525.25
2023-01-07T08:08:04.840Z,99528.06
2023-01-07T08:10:33.268Z,99530.09
2023-01-07T08:13:01.712Z,99527.28
2023-01-07T08:15:30.035Z,99530.09
2023-01-07T08:18:00.455Z,99528.56
2023-01-07T08:20:29.620Z,99520.91
2023-01-07T08:23:02.300Z,99524.47
2023-01-07T08:25:32.286Z,99524.47
2023-01-07T08:28:01.930Z,99521.41
2023-01-07T08:30:31.844Z,99527.03
2023-01-07T08:33:01.970Z,99515.78
2023-01-07T08:35:30.322Z,99512.22
2023-01-07T08:38:07.330Z,99510.16
2023-01-07T08:40:36.120Z,99512.22
2023-01-07T08:43:07.081Z,99516.81
2023-01-07T08:45:35.929Z,99513.00
2023-01-07T08:48:04.395Z,99510.69
2023-01-07T08:50:34.591Z,99501.50
2023-01-07T08:53:03.055Z,99505.09
2023-01-07T08:55:31.381Z,99502.28
2023-01-07T08:57:59.843Z,99499.97
2023-01-07T09:00:28.592Z,99498.19
2023-01-07T09:02:56.981Z,99498.69
2023-01-07T09:05:25.600Z,99495.88
2023-01-07T09:07:54.841Z,99493.31
2023-01-07T09:10:23.450Z,99489.50
2023-01-07T09:12:52.161Z,99495.13
2023-01-07T09:15:20.550Z,99506.88
2023-01-07T09:17:50.150Z,99499.50
2023-01-07T09:20:18.512Z,99502.81
2023-01-07T09:22:47.169Z,99505.16
2023-01-07T09:25:15.828Z,99502.88
2023-01-07T09:27:44.221Z,99505.44
2023-01-07T09:30:13.235Z,99507.22
2023-01-07T09:32:42.924Z,99501.09
2023-01-07T09:35:12.169Z,99502.34
2023-01-07T09:37:40.841Z,99505.19
2023-01-07T09:40:15.578Z,99501.38
2023-01-07T09:42:58.065Z,99510.84
2023-01-07T09:45:34.293Z,99507.78
2023-01-07T09:48:07.138Z,99508.06
2023-01-07T09:50:59.428Z,99502.72
2023-01-07T09:53:36.341Z,99506.31
2023-01-07T09:56:12.972Z,99511.91
2023-01-07T09:58:47.679Z,99509.66
2023-01-07T10:01:38.762Z,99513.50
2023-01-07T10:04:25.130Z,99510.97
2023-01-07T10:07:15.039Z,99516.81
2023-01-07T10:09:52.391Z,99520.66
2023-01-07T10:12:23.776Z,99526.81
2023-01-07T10:15:21.087Z,99525.00
2023-01-07T10:18:05.238Z,99525.53
2023-01-07T10:20:55.088Z,99532.16
2023-01-07T10:23:34.749Z,99538.25
2023-01-07T10:26:04.156Z,99531.88
2023-01-07T10:28:52.467Z,99539.28
2023-01-07T10:31:25.154Z,99541.81
2023-01-07T10:33:53.860Z,99547.88
2023-01-07T10:36:54.448Z,99546.84
2023-01-07T10:39:44.052Z,99557.78
2023-01-07T10:42:37.913Z,99560.81
2023-01-07T10:45:19.360Z,99568.69
2023-01-07T10:48:02.964Z,99572.47
2023-01-07T10:50:43.613Z,99578.81
2023-01-07T10:53:30.501Z,99579.78
2023-01-07T10:56:21.938Z,99578.19
2023-01-07T10:58:51.594Z,99575.38
2023-01-07T11:01:28.590Z,99577.66
2023-01-07T11:04:00.843Z,99587.25
2023-01-07T11:06:42.421Z,99587.22
2023-01-07T11:09:22.251Z,99584.91
2023-01-07T11:11:53.089Z,99589.72
2023-01-07T11:14:25.684Z,99589.69
2023-01-07T11:17:25.942Z,99598.00
2023-01-07T11:19:54.335Z,99599.25
2023-01-07T11:22:28.864Z,99601.22
2023-01-07T11:25:00.371Z,99604.00
2023-01-07T11:27:33.111Z,99606.19
2023-01-07T11:30:21.449Z,99611.75
2023-01-07T11:33:08.743Z,99607.38
2023-01-07T11:35:37.903Z,99610.13
2023-01-07T11:38:27.653Z,99608.03
2023-01-07T11:41:01.425Z,99618.88
2023-01-07T11:43:48.624Z,99622.13
2023-01-07T11:46:20.053Z,99633.47
2023-01-07T11:48:58.863Z,99625.53
2023-01-07T11:51:27.341Z,99630.00
2023-01-07T11:53:58.791Z,99640.34
2023-01-07T11:56:35.507Z,99651.91
2023-01-07T11:59:13.229Z,99654.06
2023-01-07T12:01:50.059Z,99662.09
2023-01-07T12:04:34.875Z,99666.56
2023-01-07T12:07:07.935Z,99667.75
2023-01-07T12:09:39.475Z,99669.69
2023-01-07T12:12:34.841Z,99669.63
2023-01-07T12:15:20.285Z,99661.16
2023-01-07T12:18:39.340Z,99673.78
2023-01-07T12:21:19.598Z,99670.94
2023-01-07T12:24:15.275Z,99675.16
2023-01-07T12:27:03.636Z,99673.81
2023-01-07T12:29:56.354Z,99681.63
2023-01-07T12:32:48.942Z,99687.41
2023-01-07T12:35:53.993Z,99699.22
2023-01-07T12:38:28.491Z,99698.66
2023-01-07T12:41:03.374Z,99707.03
2023-01-07T12:44:05.136Z,99714.34
2023-01-07T12:46:44.968Z,99711.53
2023-01-07T12:49:35.637Z,99718.34
2023-01-07T12:52:04.096Z,99729.50
2023-01-07T12:54:48.620Z,99725.19
2023-01-07T12:57:26.137Z,99722.72
2023-01-07T13:00:10.390Z,99721.47
2023-01-07T13:02:42.824Z,99730.09
2023-01-07T13:05:24.917Z,99738.00
2023-01-07T13:08:04.311Z,99733.47
2023-01-07T13:10:59.490Z,99731.25
2023-01-07T13:13:45.545Z,99731.09
2023-01-07T13:16:14.281Z,99734.44
2023-01-07T13:18:43.235Z,99739.81
2023-01-07T13:21:16.657Z,99752.34
2023-01-07T13:24:12.435Z,99755.72
2023-01-07T13:27:04.647Z,99757.06
2023-01-07T13:30:08.010Z,99756.09
2023-01-07T13:33:03.122Z,99760.22
2023-01-07T13:35:49.558Z,99764.53
2023-01-07T13:38:43.257Z,99762.03
2023-01-07T13:41:24.208Z,99765.59
2023-01-07T13:44:01.514Z,99765.88
2023-01-07T13:46:36.056Z,99771.47
2023-01-07T13:49:04.880Z,99774.72
2023-01-07T13:51:38.119Z,99775.50
2023-01-07T13:54:11.940Z,99780.31
2023-01-07T13:56:41.424Z,99791.50
2023-01-07T13:59:47.950Z,99783.59
2023-01-07T14:02:20.071Z,99792.75
2023-01-07T14:05:05.455Z,99794.47
2023-01-07T14:07:52.902Z,99792.94
2023-01-07T14:10:31.835Z,99801.81
2023-01-07T14:13:39.995Z,99799.97
2023-01-07T14:16:20.574Z,99802.50
2023-01-07T14:19:00.924Z,99803.75
2023-01-07T14:21:56.992Z,99805.75
2023-01-07T14:24:35.145Z,99815.09
2023-01-07T14:27:32.682Z,99810.00
2023-01-07T14:30:19.835Z,99812.50
2023-01-07T14:32:58.930Z,99812.97
2023-01-07T14:35:42.863Z,99807.09
2023-01-07T14:38:42.280Z,99806.03
2023-01-07T14:41:12.126Z,99808.06
2023-01-07T14:43:43.488Z,99809.31
2023-01-07T14:47:03.452Z,99801.72
2023-01-07T14:49:49.598Z,99808.06
2023-01-07T14:52:18.515Z,99804.50
2023-01-07T14:55:26.313Z,99801.72
2023-01-07T14:58:25.531Z,99808.84
2023-01-07T15:01:38.018Z,99813.16
2023-01-07T15:04:36.560Z,99808.34
2023-01-07T15:07:06.340Z,99802.00
2023-01-07T15:09:58.593Z,99791.59
2023-01-07T15:12:49.833Z,99797.19
2023-01-07T15:15:42.921Z,99809.88
2023-01-07T15:18:12.898Z,99800.75
2023-01-07T15:21:01.264Z,99801.22
2023-01-07T15:23:29.547Z,99804.78
2023-01-07T15:26:02.933Z,99798.44
2023-01-07T15:28:52.297Z,99793.63
2023-01-07T15:31:20.694Z,99801.22
2023-01-07T15:34:01.028Z,99796.91
2023-01-07T15:36:31.319Z,99801.72
2023-01-07T15:39:04.666Z,99799.69
2023-01-07T15:41:41.129Z,99796.91
2023-01-07T15:44:19.804Z,99794.88
2023-01-07T15:46:48.125Z,99793.34
2023-01-07T15:49:18.271Z,99789.28
2023-01-07T15:51:49.880Z,99796.13
2023-01-07T15:54:23.478Z,99787.75
2023-01-07T15:56:55.043Z,99799.41
2023-01-07T15:59:34.222Z,99797.84
2023-01-07T16:02:28.636Z,99799.88
2023-01-07T16:05:01.967Z,99796.31
2023-01-07T16:07:36.183Z,99800.38
2023-01-07T16:10:05.377Z,99798.06
2023-01-07T16:12:33.656Z,99788.16
2023-01-07T16:15:04.040Z,99799.03
2023-01-07T16:17:33.363Z,99801.00
2023-01-07T16:20:12.913Z,99800.25
2023-01-07T16:22:42.818Z,99805.25
2023-01-07T16:25:18.691Z,99804.47
2023-01-07T16:27:47.908Z,99799.38
2023-01-07T16:30:17.718Z,99792.25
2023-01-07T16:32:47.071Z,99790.72
2023-01-07T16:35:21.845Z,99788.41
2023-01-07T16:37:50.944Z,99788.91
2023-01-07T16:40:24.726Z,99779.72
2023-01-07T16:42:53.608Z,99779.72
2023-01-07T16:45:34.075Z,99780.22
2023-01-07T16:48:20.669Z,99785.03
2023-01-07T16:50:50.983Z,99781.19
2023-01-07T16:53:31.719Z,99777.63
2023-01-07T16:56:12.832Z,99771.25
2023-01-07T16:58:54.734Z,99774.81
2023-01-07T17:01:34.487Z,99770.22
2023-01-07T17:04:08.551Z,99775.78
2023-01-07T17:06:43.006Z,99771.47
2023-01-07T17:09:20.497Z,99769.44
2023-01-07T17:11:53.652Z,99771.94
2023-01-07T17:14:38.949Z,99766.84
2023-01-07T17:17:19.100Z,99769.63
2023-01-07T17:20:10.357Z,99766.84
2023-01-07T17:22:39.743Z,99764.53
2023-01-07T17:25:14.144Z,99762.50
2023-01-07T17:28:07.896Z,99765.78
2023-01-07T17:30:38.421Z,99769.34
2023-01-07T17:33:06.751Z,99760.22
2023-01-07T17:35:35.045Z,99763.00
2023-01-07T17:38:03.391Z,99758.66
2023-01-07T17:40:31.708Z,99757.91
2023-01-07T17:43:18.425Z,99756.34
2023-01-07T17:45:46.793Z,99752.50
2023-01-07T17:48:15.949Z,99753.00
2023-01-07T17:50:44.584Z,99747.91
2023-01-07T17:53:43.986Z,99754.44
2023-01-07T17:56:12.574Z,99745.75
2023-01-07T17:58:45.804Z,99743.72
2023-01-07T18:01:18.589Z,99740.66
2023-01-07T18:03:47.518Z,99737.56
2023-01-07T18:06:22.216Z,99734.03
2023-01-07T18:08:51.823Z,99736.53
2023-01-07T18:11:44.441Z,99732.69
2023-01-07T18:14:16.169Z,99731.63
2023-01-07T18:16:44.938Z,99724.97
2023-01-07T18:19:16.792Z,99723.44
2023-01-07T18:21:45.098Z,99718.06
2023-01-07T18:24:19.214Z,99722.88
2023-01-07T18:26:48.100Z,99721.03
2023-01-07T18:29:16.589Z,99715.47
2023-01-07T18:31:46.197Z,99716.72
2023-01-07T18:34:16.425Z,99720.75
2023-01-07T18:36:44.776Z,99713.63
2023-01-07T18:39:19.751Z,99708.81
2023-01-07T18:41:51.989Z,99710.84
2023-01-07T18:44:22.681Z,99705.75
2023-01-07T18:46:51.024Z,99699.38
2023-01-07T18:49:19.309Z,99706.97
2023-01-07T18:51:48.849Z,99707.44
2023-01-07T18:54:17.592Z,99690.44
2023-01-07T18:56:46.758Z,99682.06
2023-01-07T18:59:15.753Z,99696.00
2023-01-07T19:01:44.179Z,99696.00
2023-01-07T19:04:12.800Z,99693.69
2023-01-07T19:06:41.195Z,99693.41
2023-01-07T19:09:09.512Z,99691.88
2023-01-07T19:11:39.220Z,99688.81
2023-01-07T19:14:07.566Z,99688.50
2023-01-07T19:16:37.687Z,99683.38
2023-01-07T19:19:07.421Z,99684.63
2023-01-07T19:21:35.979Z,99691.16
2023-01-07T19:24:05.470Z,99691.16
2023-01-07T19:26:34.846Z,99692.13
2023-01-07T19:29:04.342Z,99687.03
2023-01-07T19:31:32.689Z,99681.94
2023-01-07T19:34:01.109Z,99686.44
2023-01-07T19:36:29.748Z,99684.59
2023-01-07T19:38:58.408Z,99677.47
2023-01-07T19:41:26.766Z,99680.75
2023-01-07T19:44:00.272Z,99675.34
2023-01-07T19:46:29.543Z,99670.25
2023-01-07T19:48:57.841Z,99676.31
2023-01-07T19:51:26.128Z,99674.78
2023-01-07T19:53:54.492Z,99675.25
2023-01-07T19:56:22.774Z,99668.63
2023-01-07T19:58:56.559Z,99665.53
2023-01-07T20:01:27.427Z,99665.25
2023-01-07T20:03:57.913Z,99668.50
2023-01-07T20:06:31.269Z,99662.94
2023-01-07T20:08:59.960Z,99656.59
2023-01-07T20:11:28.281Z,99650.25
2023-01-07T20:13:56.557Z,99649.00
2023-01-07T20:16:25.505Z,99649.00
2023-01-07T20:18:55.438Z,99649.00
2023-01-07T20:21:26.554Z,99641.63
2023-01-07T20:23:55.336Z,99644.88
2023-01-07T20:26:26.881Z,99646.88
2023-01-07T20:28:55.907Z,99642.25
2023-01-07T20:31:25.739Z,99637.63
2023-01-07T20:33:56.671Z,99630.22
2023-01-07T20:36:28.536Z,99631.19
2023-01-07T20:38:57.588Z,99637.72
2023-01-07T20:41:29.324Z,99634.63
2023-01-07T20:44:00.063Z,99635.88
2023-01-07T20:46:30.764Z,99634.34
2023-01-07T20:48:59.332Z,99640.09
2023-01-07T20:51:28.617Z,99633.47
2023-01-07T20:53:56.986Z,99633.13
2023-01-07T20:56:27.163Z,99634.84
2023-01-07T20:58:58.242Z,99636.56
2023-01-07T21:01:26.700Z,99639.53
2023-01-07T21:03:55.052Z,99640.50
2023-01-07T21:06:23.793Z,99642.50
2023-01-07T21:08:52.384Z,99641.41
2023-01-07T21:11:22.838Z,99645.44
2023-01-07T21:13:52.094Z,99643.13
2023-01-07T21:16:20.967Z,99640.81
2023-01-07T21:18:49.481Z,99644.06
2023-01-07T21:21:22.205Z,99638.69
2023-01-07T21:23:51.040Z,99651.84
2023-01-07T21:26:20.277Z,99649.53
2023-01-07T21:28:48.693Z,99652.31
2023-01-07T21:31:18.191Z,99648.75
2023-01-07T21:33:46.582Z,99654.31
2023-01-07T21:36:20.086Z,99654.75
2023-01-07T21:38:52.816Z,99649.66
2023-01-07T21:41:21.209Z,99657.25
2023-01-07T21:43:49.916Z,99654.16
2023-01-07T21:46:18.761Z,99664.22
2023-01-07T21:48:47.343Z,99661.16
2023-01-07T21:51:21.670Z,99661.31
2023-01-07T21:53:50.555Z,99659.50
2023-01-07T21:56:19.891Z,99661.97
2023-01-07T21:58:49.128Z,99662.44
2023-01-07T22:01:19.290Z,99668.47
2023-01-07T22:03:50.329Z,99667.41
2023-01-07T22:06:26.858Z,99674.22
2023-01-07T22:08:57.692Z,99676.69
2023-01-07T22:11:26.639Z,99670.81
2023-01-07T22:13:57.435Z,99670.50
2023-01-07T22:16:27.777Z,99672.22
2023-01-07T22:18:58.011Z,99680.25
2023-01-07T22:21:26.476Z,99681.03
2023-01-07T22:23:54.819Z,99686.59
2023-01-07T22:26:23.987Z,99688.59
2023-01-07T22:28:59.440Z,99681.03
2023-01-07T22:31:34.173Z,99692.94
2023-01-07T22:34:02.463Z,99695.25
2023-01-07T22:36:34.224Z,99697.56
2023-01-07T22:39:11.207Z,99700.34
2023-01-07T22:41:39.669Z,99700.63
2023-01-07T22:44:13.897Z,99700.94
2023-01-07T22:46:46.628Z,99698.16
2023-01-07T22:49:15.914Z,99704.81
2023-01-07T22:51:48.241Z,99704.34
2023-01-07T22:54:17.975Z,99715.00
2023-01-07T22:56:46.700Z,99708.97
2023-01-07T22:59:15.003Z,99720.88
2023-01-07T23:01:43.307Z,99730.75
2023-01-07T23:04:11.913Z,99720.41
2023-01-07T23:06:40.696Z,99725.50
2023-01-07T23:09:09.018Z,99731.06
2023-01-07T23:11:49.640Z,99742.19
2023-01-07T23:14:20.848Z,99733.84
2023-01-07T23:16:49.879Z,99738.16
2023-01-07T23:19:19.406Z,99736.91
2023-01-07T23:21:53.625Z,99749.59
2023-01-07T23:24:22.987Z,99752.38
2023-01-07T23:26:53.404Z,99749.59
2023-01-07T23:29:22.664Z,99754.69
2023-01-07T23:31:51.106Z,99756.69
2023-01-07T23:34:19.926Z,99757.94
2023-01-07T23:36:48.283Z,99756.69
2023-01-07T23:39:16.733Z,99769.06
2023-01-07T23:41:45.098Z,99770.78
2023-01-07T23:44:13.460Z,99772.78
2023-01-07T23:46:41.744Z,99776.50
2023-01-07T23:49:10.110Z,99778.69
2023-01-07T23:51:38.464Z,99787.97
2023-01-07T23:54:06.798Z,99781.75
2023-01-07T23:56:35.142Z,99784.25
2023-01-07T23:59:03.928Z,99790.75
